Terminal Aerodrome Forecast
Issued by NWS Medford, OR

Home | Current Version | Previous Version | Text Only | Print | Product List | Glossary On
Versions: 1 2 3 4 5 6 7 8 9 10 11 12 13 14 15 16 17 18 19 20 21 22 23 24 25 26 27 28 29
000
FTUS46 KMFR 222300 RRA
TAFMFR
TAF
KMFR 222347Z 2300/2324 21011G19KT P6SM VCSH BKN060 OVC080
     FM230200 16007KT P6SM -SHRA SCT040 OVC060
     FM230600 VRB03KT P6SM -RA SCT030 BKN040 OVC060
     FM230900 20005KT 6SM -RA BR FEW020 SCT030 OVC050
     FM231500 VRB03KT P6SM -SHRA SCT030 OVC050
     FM232100 27010KT P6SM VCSH SCT040 OVC060=

USA.gov is the U.S. government's official web portal to all federal, state and local government web resources and services.